Time;durP1;ratioP1;P1;durP2;ratioP2;P2;SDS_P1;SDS_P2;PMS_P1;PMS_P2;Temp;Humidity;BMP_temperature;BMP_pressure;BME280_temperature;BME280_humidity;BME280_pressure;Samples;Min_cycle;Max_cycle;Signal;HPM_P1;HPM_P2
2021/08/21 03:35:18;;;;;;;5.85;5.45;;;;;;;15.65;78.83;94911.84;5779848;23;20120;-75
2021/08/21 05:00:40;;;;;;;4.15;3.42;;;;;;;24.61;49.67;94930.28;5912222;23;20551;-79
2021/08/21 05:03:05;;;;;;;4.80;3.20;;;;;;;25.80;46.21;94931.16;4982028;28;20047;-77
2021/08/21 05:05:31;;;;;;;3.53;3.17;;;;;;;22.32;54.38;94934.72;4953144;28;20030;-78
2021/08/21 05:07:56;;;;;;;2.92;2.72;;;;;;;25.18;48.55;94940.06;4986886;28;20026;-76
2021/08/21 05:10:22;;;;;;;3.40;3.13;;;;;;;25.31;47.05;94936.09;4972428;28;20026;-78
2021/08/21 05:12:47;;;;;;;3.65;3.03;;;;;;;25.63;47.14;94940.16;4954647;28;20037;-77
2021/08/21 05:15:13;;;;;;;3.58;3.28;;;;;;;27.03;44.11;94939.41;4971346;28;20638;-78
2021/08/21 05:17:39;;;;;;;4.18;2.70;;;;;;;27.51;42.13;94943.16;4970494;28;20054;-77
2021/08/21 05:20:15;;;;;;;3.20;2.90;;;;;;;27.73;42.62;94940.88;4971396;28;20048;-78
2021/08/21 05:25:09;;;;;;;3.45;3.15;;;;;;;29.10;39.27;94945.66;4971132;28;20129;-78
2021/08/21 05:27:34;;;;;;;3.13;2.92;;;;;;;29.06;38.64;94944.66;4971731;28;20121;-78
2021/08/21 05:30:03;;;;;;;2.83;2.42;;;;;;;29.54;36.96;94951.47;4953816;28;20061;-78
2021/08/21 05:32:30;;;;;;;3.30;2.80;;;;;;;30.57;35.77;94952.25;4956656;28;20472;-79
2021/08/21 05:34:55;;;;;;;2.70;2.50;;;;;;;31.03;34.89;94949.50;4986586;28;20033;-78
2021/08/21 05:37:21;;;;;;;3.08;2.65;;;;;;;30.93;33.77;94955.03;4955404;28;20488;-79
2021/08/21 05:39:46;;;;;;;2.47;2.30;;;;;;;31.60;32.97;94951.50;4971140;28;20033;-78
2021/08/21 05:42:12;;;;;;;2.97;2.40;;;;;;;30.93;34.34;94949.69;4987187;28;20100;-77
2021/08/21 05:44:37;;;;;;;2.83;2.63;;;;;;;31.03;35.46;94954.88;4971250;28;20042;-78
2021/08/21 05:47:03;;;;;;;2.95;2.75;;;;;;;31.19;34.74;94956.13;4948730;28;20548;-77
2021/08/21 05:49:28;;;;;;;3.03;2.45;;;;;;;31.02;35.58;94956.75;4952560;28;20041;-78
2021/08/21 05:51:54;;;;;;;3.22;2.90;;;;;;;31.04;34.13;94951.09;4951254;28;20026;-78
2021/08/21 05:54:19;;;;;;;2.80;2.58;;;;;;;32.20;33.17;94949.31;4952663;28;20034;-77
2021/08/21 05:56:45;;;;;;;3.10;2.83;;;;;;;33.14;32.02;94958.91;4968851;28;20116;-78
2021/08/21 05:59:10;;;;;;;2.70;2.50;;;;;;;33.08;31.56;94960.13;4954223;28;20484;-76
2021/08/21 06:01:38;;;;;;;3.80;2.33;;;;;;;33.00;30.68;94959.00;4953930;28;20440;-76
2021/08/21 06:04:05;;;;;;;2.88;2.60;;;;;;;30.88;34.93;94957.81;4958941;28;20565;-77
2021/08/21 06:06:30;;;;;;;2.78;2.58;;;;;;;28.87;36.90;94959.81;4951845;28;20085;-78
2021/08/21 06:08:55;;;;;;;3.42;2.33;;;;;;;27.71;41.07;94957.09;4929775;28;20038;-79
2021/08/21 06:11:21;;;;;;;3.53;2.47;;;;;;;28.88;38.12;94964.06;4987047;28;20038;-77
2021/08/21 06:13:46;;;;;;;3.17;2.40;;;;;;;28.89;36.58;94950.47;4982206;28;20033;-78
2021/08/21 06:16:12;;;;;;;3.67;2.13;;;;;;;27.34;39.54;94956.00;4962067;28;20094;-77
2021/08/21 06:18:37;;;;;;;2.40;2.20;;;;;;;28.18;38.52;94956.50;4971916;28;20031;-78
2021/08/21 06:21:03;;;;;;;2.88;2.67;;;;;;;29.10;35.33;94927.78;4992183;28;20026;-80
2021/08/21 06:23:28;;;;;;;3.30;2.70;;;;;;;32.64;31.18;94951.13;4939424;28;20575;-78
2021/08/21 06:25:54;;;;;;;2.97;2.72;;;;;;;34.22;29.80;94956.97;4971952;28;20038;-78
2021/08/21 06:28:19;;;;;;;3.72;2.10;;;;;;;32.81;30.05;94953.91;4973465;28;20053;-78
2021/08/21 06:30:45;;;;;;;2.90;2.70;;;;;;;33.00;30.89;94952.84;4990189;28;20030;-78
2021/08/21 06:33:10;;;;;;;3.35;3.05;;;;;;;32.71;29.77;94953.38;4975005;28;20022;-78
2021/08/21 06:35:36;;;;;;;3.05;2.85;;;;;;;33.83;28.76;94949.84;4989797;28;20030;-80
2021/08/21 06:38:01;;;;;;;2.30;2.20;;;;;;;32.98;31.74;94952.34;4990061;28;20062;-78
2021/08/21 06:40:27;;;;;;;2.90;2.70;;;;;;;29.63;36.65;94952.44;4956804;28;20033;-79
2021/08/21 06:42:52;;;;;;;4.53;2.83;;;;;;;28.14;38.03;94952.00;4946536;28;20160;-78
2021/08/21 06:45:18;;;;;;;3.60;2.90;;;;;;;27.16;39.66;94938.81;4987275;28;20027;-78
2021/08/21 06:47:43;;;;;;;3.00;2.80;;;;;;;27.26;39.76;94943.28;4939217;28;20034;-78
2021/08/21 06:50:10;;;;;;;3.22;2.47;;;;;;;27.03;40.80;94940.22;4973065;28;20018;-82
2021/08/21 06:52:35;;;;;;;2.72;2.35;;;;;;;26.98;41.63;94948.19;4936599;28;21137;-81
2021/08/21 06:55:01;;;;;;;3.97;2.88;;;;;;;28.10;40.11;94940.31;4973802;28;20069;-81
2021/08/21 06:57:27;;;;;;;2.47;2.28;;;;;;;28.03;39.42;94947.84;4940113;28;20026;-81
2021/08/21 06:59:52;;;;;;;2.83;2.60;;;;;;;27.10;40.86;94943.34;4989575;28;20018;-82
2021/08/21 07:02:18;;;;;;;2.30;2.10;;;;;;;28.16;39.61;94941.84;4972532;28;20078;-81
2021/08/21 07:04:43;;;;;;;3.50;3.28;;;;;;;28.72;37.92;94956.25;4989259;28;20048;-77
2021/08/21 07:07:10;;;;;;;2.42;2.10;;;;;;;28.86;37.78;94950.22;4990166;28;20105;-82
2021/08/21 07:09:36;;;;;;;3.00;2.80;;;;;;;28.76;37.11;94946.63;4989284;28;20038;-83
2021/08/21 07:12:02;;;;;;;2.47;2.28;;;;;;;26.29;41.89;94953.44;4990143;28;20538;-81
2021/08/21 07:14:27;;;;;;;3.28;2.63;;;;;;;28.48;39.54;94955.41;4971761;28;20050;-81
2021/08/21 07:16:53;;;;;;;5.13;2.50;;;;;;;28.12;39.62;94946.19;4973162;28;20113;-82
2021/08/21 07:19:19;;;;;;;2.60;2.40;;;;;;;27.26;40.79;94952.03;4972611;28;20041;-81
2021/08/21 07:21:44;;;;;;;3.03;2.50;;;;;;;28.16;39.28;94947.19;4955409;28;20157;-82
2021/08/21 07:24:10;;;;;;;3.00;2.80;;;;;;;28.71;39.58;94946.66;4972454;28;20026;-82
2021/08/21 07:26:35;;;;;;;3.65;2.40;;;;;;;28.22;39.56;94951.41;4987736;28;20038;-81
2021/08/21 07:29:01;;;;;;;4.40;2.42;;;;;;;29.11;38.01;94953.38;4989824;28;20031;-83
2021/08/21 07:31:27;;;;;;;3.67;2.67;;;;;;;28.72;38.56;94948.25;4969623;28;20126;-82
2021/08/21 07:33:52;;;;;;;3.40;2.45;;;;;;;26.72;41.27;94950.13;4972490;28;20114;-81
2021/08/21 07:36:18;;;;;;;3.33;2.28;;;;;;;27.69;39.82;94953.13;4971619;28;20062;-82
2021/08/21 07:38:43;;;;;;;3.75;2.95;;;;;;;28.34;40.77;94943.84;4954974;28;20034;-80
2021/08/21 07:41:11;;;;;;;4.03;2.45;;;;;;;28.80;37.90;94943.38;4973319;28;20522;-80
2021/08/21 07:43:36;;;;;;;4.20;2.50;;;;;;;26.77;41.17;94941.34;4970801;28;20088;-81
2021/08/21 07:46:02;;;;;;;2.85;2.65;;;;;;;29.00;38.71;94935.09;4956579;28;20022;-82
2021/08/21 07:48:27;;;;;;;3.53;2.58;;;;;;;28.13;38.93;94940.56;4989275;28;20491;-80
2021/08/21 07:50:53;;;;;;;3.08;2.67;;;;;;;28.32;38.43;94929.19;4989920;28;20100;-80
2021/08/21 07:53:18;;;;;;;4.30;3.03;;;;;;;28.49;38.81;94940.19;4942524;28;20031;-80
2021/08/21 07:55:44;;;;;;;2.78;2.50;;;;;;;26.93;41.62;94934.13;4968315;28;20045;-83
2021/08/21 07:58:09;;;;;;;2.65;2.45;;;;;;;27.89;39.34;94942.34;4967195;28;20038;-82
2021/08/21 08:00:35;;;;;;;2.72;2.53;;;;;;;28.02;40.40;94927.59;4986134;28;20038;-81
2021/08/21 08:03:00;;;;;;;3.85;2.58;;;;;;;26.88;40.49;94936.81;4956535;28;20049;-83
2021/08/21 08:05:26;;;;;;;4.07;2.47;;;;;;;27.95;40.08;94937.75;4970334;28;20034;-81
2021/08/21 08:07:51;;;;;;;3.20;2.90;;;;;;;28.09;40.81;94938.75;4972058;28;20077;-80
2021/08/21 08:10:17;;;;;;;3.15;2.55;;;;;;;27.58;40.54;94936.44;4970115;28;20030;-78
2021/08/21 08:12:43;;;;;;;2.60;2.40;;;;;;;28.95;39.11;94929.84;4971115;28;20030;-81
2021/08/21 08:15:09;;;;;;;3.20;2.30;;;;;;;28.63;38.80;94928.59;4969113;28;20037;-81
2021/08/21 08:17:34;;;;;;;3.67;2.80;;;;;;;29.56;36.37;94927.16;4970949;28;20113;-81
2021/08/21 08:20:00;;;;;;;3.22;2.50;;;;;;;28.61;37.52;94927.25;4971410;28;20100;-81
2021/08/21 08:22:26;;;;;;;4.40;2.30;;;;;;;28.39;37.32;94930.44;4988237;28;20037;-83
2021/08/21 08:24:52;;;;;;;2.50;2.20;;;;;;;28.51;37.08;94932.72;4963626;28;20470;-82
2021/08/21 08:27:18;;;;;;;2.42;2.22;;;;;;;29.07;37.45;94927.53;4987751;28;20022;-81
2021/08/21 08:29:43;;;;;;;2.22;2.13;;;;;;;28.94;37.36;94928.25;4955961;28;20331;-79
2021/08/21 08:32:09;;;;;;;2.65;2.42;;;;;;;28.66;38.69;94922.72;4970768;28;20404;-82
2021/08/21 08:34:34;;;;;;;3.10;2.80;;;;;;;28.05;38.04;94924.34;4989712;28;20034;-81
2021/08/21 08:37:00;;;;;;;3.10;2.70;;;;;;;28.94;38.81;94918.38;4955043;28;20492;-80
2021/08/21 08:39:25;;;;;;;3.53;2.60;;;;;;;29.14;37.08;94925.31;4988029;28;20015;-83
2021/08/21 08:41:51;;;;;;;3.72;2.50;;;;;;;28.52;36.89;94918.31;4970317;28;20026;-82
2021/08/21 08:44:16;;;;;;;2.30;2.10;;;;;;;29.23;36.55;94923.59;4954937;28;20486;-83
2021/08/21 08:46:42;;;;;;;2.70;2.50;;;;;;;28.83;35.38;94924.13;4956629;28;20093;-82
2021/08/21 08:49:07;;;;;;;3.58;2.95;;;;;;;29.46;35.86;94908.63;4955045;28;20415;-83
2021/08/21 08:51:33;;;;;;;4.55;2.28;;;;;;;29.20;35.83;94910.81;4930867;28;20121;-80
2021/08/21 08:53:59;;;;;;;2.60;2.40;;;;;;;30.13;34.51;94916.09;4954513;28;20035;-81
2021/08/21 08:56:24;;;;;;;2.63;2.42;;;;;;;29.65;36.81;94907.53;4972214;28;20030;-79
2021/08/21 08:58:49;;;;;;;2.58;2.38;;;;;;;29.77;36.78;94918.53;4972128;28;20026;-81
2021/08/21 09:01:15;;;;;;;2.97;2.67;;;;;;;29.57;35.15;94902.06;4967234;28;20050;-82
2021/08/21 09:03:40;;;;;;;2.85;2.60;;;;;;;29.76;36.04;94916.94;4950716;28;20483;-82
2021/08/21 09:06:08;;;;;;;4.47;2.55;;;;;;;29.61;34.25;94913.72;4966199;28;20551;-82
2021/08/21 09:08:35;;;;;;;3.08;2.78;;;;;;;29.30;35.52;94918.72;4935472;28;20030;-81
2021/08/21 09:11:16;;;;;;;2.65;2.42;;;;;;;29.25;36.24;94918.81;4934118;28;20125;-82
2021/08/21 09:13:42;;;;;;;2.45;2.25;;;;;;;29.64;34.64;94915.81;4967771;28;20507;-83
2021/08/21 09:16:07;;;;;;;3.80;2.95;;;;;;;29.36;35.58;94911.44;4968687;28;20027;-84
2021/08/21 09:18:33;;;;;;;3.20;2.90;;;;;;;29.56;35.20;94911.13;4968871;28;20031;-83
2021/08/21 09:21:03;;;;;;;3.72;2.92;;;;;;;28.79;35.86;94915.91;4968642;28;20026;-81
2021/08/21 09:23:39;;;;;;;2.60;2.40;;;;;;;29.28;35.86;94905.66;4943885;28;20027;-81
2021/08/21 09:29:13;;;;;;;4.18;2.78;;;;;;;29.18;35.38;94905.00;4951879;28;20058;-85
2021/08/21 09:31:38;;;;;;;3.05;2.85;;;;;;;29.80;33.98;94901.94;4950082;28;20070;-84
2021/08/21 09:34:07;;;;;;;3.28;2.97;;;;;;;29.11;35.34;94896.53;4964884;28;20030;-84
2021/08/21 09:36:39;;;;;;;8.27;3.35;;;;;;;29.78;34.75;94890.75;4951374;28;20015;-85
2021/08/21 09:39:15;;;;;;;3.30;3.08;;;;;;;29.66;34.67;94893.09;4952025;28;20027;-83
2021/08/21 09:41:59;;;;;;;3.08;2.72;;;;;;;29.52;34.08;94894.09;4930589;28;20028;-84
2021/08/21 09:44:34;;;;;;;4.55;2.67;;;;;;;29.00;34.90;94897.75;4963631;28;20031;-83
2021/08/21 09:47:18;;;;;;;3.00;2.80;;;;;;;29.24;36.09;94885.16;4967123;28;20022;-83
2021/08/21 09:49:44;;;;;;;3.85;2.63;;;;;;;29.35;34.08;94886.59;4968170;28;20109;-84
2021/08/21 09:52:11;;;;;;;3.50;2.90;;;;;;;29.24;35.27;94890.50;4951270;28;20502;-83
2021/08/21 09:54:37;;;;;;;4.07;3.35;;;;;;;28.63;35.13;94883.25;4966065;28;20118;-83
2021/08/21 09:57:03;;;;;;;5.00;3.30;;;;;;;28.93;35.51;94879.44;4966324;28;20038;-82
2021/08/21 09:59:49;;;;;;;3.17;2.97;;;;;;;29.01;35.49;94883.34;4940914;29;20023;-83
2021/08/21 10:02:14;;;;;;;3.40;3.17;;;;;;;28.66;35.18;94882.72;4947166;29;20050;-83
2021/08/21 10:04:43;;;;;;;7.85;4.13;;;;;;;28.89;35.04;94880.31;4949048;29;20027;-81
2021/08/21 10:07:13;;;;;;;3.88;3.28;;;;;;;29.71;34.87;94882.31;4959324;28;20105;-82
2021/08/21 10:09:40;;;;;;;5.05;3.08;;;;;;;29.49;34.20;94876.78;4965858;28;20335;-81
2021/08/21 10:12:07;;;;;;;4.43;2.97;;;;;;;30.36;33.53;94881.47;4967000;28;20035;-80
2021/08/21 10:14:34;;;;;;;5.15;3.22;;;;;;;30.08;33.52;94881.47;4950710;28;20046;-81
2021/08/21 10:17:00;;;;;;;4.85;3.42;;;;;;;30.58;33.58;94876.25;4967735;28;20101;-82
2021/08/21 10:19:26;;;;;;;3.08;2.60;;;;;;;29.84;33.75;94870.09;4933881;28;20022;-83
2021/08/21 10:21:53;;;;;;;4.28;2.97;;;;;;;30.64;33.05;94883.88;4942154;28;20138;-82
2021/08/21 10:24:29;;;;;;;4.00;3.63;;;;;;;31.41;31.76;94869.69;4944637;28;20047;-82
2021/08/21 10:27:00;;;;;;;3.75;3.20;;;;;;;31.02;30.94;94867.63;4961082;28;20042;-79
2021/08/21 10:29:25;;;;;;;4.20;3.70;;;;;;;30.70;32.21;94869.31;4944642;28;20463;-78
2021/08/21 10:31:51;;;;;;;4.10;3.70;;;;;;;30.47;31.92;94861.53;4947856;28;20023;-83
2021/08/21 10:34:16;;;;;;;4.53;3.40;;;;;;;31.28;31.53;94865.97;4949632;28;20038;-81
2021/08/21 10:37:00;;;;;;;4.15;3.30;;;;;;;30.65;32.42;94858.72;4965051;28;20094;-81
2021/08/21 10:39:26;;;;;;;6.70;3.67;;;;;;;31.13;32.14;94856.41;4951112;28;20023;-81
2021/08/21 10:41:53;;;;;;;3.83;3.58;;;;;;;31.82;29.90;94860.41;4967173;28;20035;-79
2021/08/21 10:44:38;;;;;;;4.35;3.95;;;;;;;32.42;29.10;94872.56;4951200;28;20098;-80
2021/08/21 10:47:03;;;;;;;3.55;3.15;;;;;;;32.20;30.68;94866.16;4969144;28;20025;-77
2021/08/21 10:49:42;;;;;;;3.75;3.50;;;;;;;31.49;32.08;94866.28;4967524;28;20026;-81
2021/08/21 10:52:47;;;;;;;6.07;3.83;;;;;;;30.20;31.16;94860.38;4948542;29;20396;-81
2021/08/21 10:55:20;;;;;;;3.95;3.65;;;;;;;30.21;31.13;94861.19;4949865;28;20043;-82
2021/08/21 10:58:08;;;;;;;3.67;3.35;;;;;;;30.12;32.53;94858.38;4947744;28;20031;-81
2021/08/21 11:00:39;;;;;;;3.50;3.30;;;;;;;30.57;32.62;94856.75;4954360;28;20027;-79
2021/08/21 11:03:16;;;;;;;3.53;3.22;;;;;;;30.08;32.15;94856.59;4986367;28;20046;-85
2021/08/21 11:06:03;;;;;;;3.10;2.90;;;;;;;29.70;32.71;94858.59;4990298;28;20101;-81
2021/08/21 11:08:31;;;;;;;3.80;3.60;;;;;;;29.35;33.59;94857.25;4991412;28;20399;-78
2021/08/21 11:11:14;;;;;;;3.60;3.30;;;;;;;29.27;34.46;94857.91;4957192;28;20571;-81
2021/08/21 11:13:46;;;;;;;3.75;3.45;;;;;;;29.21;33.76;94851.03;4974127;28;20091;-80
2021/08/21 11:16:12;;;;;;;4.40;4.00;;;;;;;29.32;34.47;94849.00;4972606;28;20034;-81
2021/08/21 11:18:49;;;;;;;6.72;3.20;;;;;;;29.18;33.67;94844.41;4974270;28;20030;-79
2021/08/21 11:21:33;;;;;;;3.70;3.40;;;;;;;29.68;33.97;94839.34;4974407;28;20072;-80
2021/08/21 11:23:59;;;;;;;3.58;3.38;;;;;;;30.04;33.51;94842.25;4972580;28;20033;-80
2021/08/21 11:26:24;;;;;;;3.60;3.35;;;;;;;29.87;33.37;94829.44;4974011;28;20015;-81
2021/08/21 11:29:07;;;;;;;3.80;3.50;;;;;;;30.41;31.55;94842.09;4940443;28;20065;-82
2021/08/21 11:32:00;;;;;;;6.05;3.40;;;;;;;31.34;30.80;94830.72;4974329;28;20019;-80
2021/08/21 11:34:26;;;;;;;4.47;3.67;;;;;;;31.09;30.82;94822.47;4990065;28;20030;-82
2021/08/21 11:36:51;;;;;;;4.70;4.03;;;;;;;31.39;32.23;94823.66;4956848;28;20041;-80
2021/08/21 11:39:17;;;;;;;4.38;3.95;;;;;;;31.12;29.64;94828.03;4971998;28;20026;-81
2021/08/21 11:41:53;;;;;;;4.95;4.25;;;;;;;30.94;30.92;94828.94;4969839;28;20030;-80
2021/08/21 11:44:31;;;;;;;6.30;3.72;;;;;;;31.32;32.73;94829.44;4957571;28;20037;-81
2021/08/21 11:47:08;;;;;;;3.87;3.63;;;;;;;31.70;30.25;94825.31;4990539;28;20031;-83
2021/08/21 11:49:33;;;;;;;5.03;3.75;;;;;;;30.89;29.93;94830.94;4972817;28;20030;-80
2021/08/21 11:52:00;;;;;;;4.30;4.00;;;;;;;30.48;29.79;94822.97;4974034;28;20480;-82
2021/08/21 11:54:27;;;;;;;3.70;3.40;;;;;;;30.47;30.25;94822.16;4955637;28;20038;-86
2021/08/21 11:56:57;;;;;;;7.65;3.90;;;;;;;30.28;29.94;94826.81;4973982;28;20030;-82
2021/08/21 11:59:22;;;;;;;4.30;3.47;;;;;;;29.83;30.47;94825.75;4955625;28;20030;-79
2021/08/21 12:02:10;;;;;;;3.60;3.00;;;;;;;29.87;31.57;94831.31;4990785;28;20042;-82
2021/08/21 12:04:36;;;;;;;3.95;3.50;;;;;;;29.53;31.70;94836.94;4989784;28;20518;-81
2021/08/21 12:07:01;;;;;;;3.88;3.47;;;;;;;29.39;31.16;94836.91;4939353;28;20031;-82
2021/08/21 12:09:27;;;;;;;3.67;3.33;;;;;;;29.24;31.04;94840.59;4972596;28;20022;-83
2021/08/21 12:11:53;;;;;;;3.70;3.40;;;;;;;29.20;29.59;94826.22;4971163;28;20519;-82
2021/08/21 12:14:21;;;;;;;5.63;3.72;;;;;;;28.81;30.02;94832.91;4939448;28;20014;-82
2021/08/21 12:16:47;;;;;;;4.38;3.85;;;;;;;28.91;30.09;94836.25;4954862;28;20061;-77
2021/08/21 12:19:12;;;;;;;3.85;3.55;;;;;;;29.08;30.91;94833.06;4955636;28;20101;-78
2021/08/21 12:21:38;;;;;;;5.32;3.60;;;;;;;29.15;30.21;94826.31;4971629;28;20117;-79
2021/08/21 12:24:11;;;;;;;3.60;3.40;;;;;;;29.30;30.11;94825.28;4971692;28;20061;-80
2021/08/21 12:26:37;;;;;;;3.90;3.60;;;;;;;29.32;30.98;94823.13;4956909;28;20041;-84
2021/08/21 12:29:04;;;;;;;3.65;3.35;;;;;;;29.06;29.26;94820.00;4969880;28;20054;-82
2021/08/21 12:31:50;;;;;;;3.55;3.25;;;;;;;29.17;30.04;94816.13;4972686;28;20557;-82
2021/08/21 12:34:20;;;;;;;4.20;3.80;;;;;;;29.49;29.84;94806.56;4955850;28;20058;-82
2021/08/21 12:36:46;;;;;;;4.03;3.75;;;;;;;29.50;30.21;94808.97;4972570;28;20488;-83
2021/08/21 12:39:13;;;;;;;3.97;3.72;;;;;;;29.21;28.77;94811.78;4940414;28;20027;-82
2021/08/21 12:42:00;;;;;;;9.00;8.30;;;;;;;29.50;30.05;94810.84;4970682;28;20033;-82
2021/08/21 12:44:36;;;;;;;3.65;3.45;;;;;;;29.57;28.54;94813.94;4972225;28;20117;-80
2021/08/21 12:47:06;;;;;;;3.00;2.80;;;;;;;29.49;28.24;94817.25;4970662;28;20053;-83
2021/08/21 12:49:35;;;;;;;4.25;3.20;;;;;;;29.29;28.10;94815.69;4956840;28;20038;-79
2021/08/21 12:52:01;;;;;;;;;;;;;;;29.13;27.87;94815.09;4972027;28;20035;-78
2021/08/21 12:54:29;;;;;;;3.35;2.65;;;;;;;29.07;28.11;94818.13;4971259;28;20016;-79
2021/08/21 12:57:08;;;;;;;3.10;2.90;;;;;;;28.77;28.80;94816.69;4956670;28;20037;-76
2021/08/21 12:59:34;;;;;;;3.53;3.22;;;;;;;28.60;29.08;94817.16;4959111;28;20035;-80
2021/08/21 13:02:07;;;;;;;4.22;2.72;;;;;;;28.82;28.71;94818.50;4956200;28;20061;-80
2021/08/21 13:04:32;;;;;;;3.03;2.80;;;;;;;28.90;28.46;94810.63;4970187;28;20496;-79
2021/08/21 13:06:59;;;;;;;3.20;3.00;;;;;;;28.70;29.13;94813.59;4939657;28;20030;-78
2021/08/21 13:09:24;;;;;;;2.83;2.60;;;;;;;28.57;30.14;94816.94;4988986;28;20023;-80
2021/08/21 13:11:50;;;;;;;3.10;2.90;;;;;;;28.54;29.68;94812.19;4954564;28;20500;-82
2021/08/21 13:14:15;;;;;;;3.20;3.00;;;;;;;28.58;30.16;94813.19;4971122;28;20034;-79
2021/08/21 13:16:44;;;;;;;6.03;2.85;;;;;;;28.57;29.81;94820.41;4931954;28;20049;-79
2021/08/21 13:19:09;;;;;;;3.38;3.08;;;;;;;28.37;29.44;94804.66;4962734;28;20038;-80
2021/08/21 13:21:34;;;;;;;3.97;3.08;;;;;;;28.44;29.40;94820.31;4965615;28;20452;-78
2021/08/21 13:24:00;;;;;;;3.05;2.85;;;;;;;28.45;28.42;94812.00;4963128;28;20022;-79
2021/08/21 13:26:25;;;;;;;3.92;3.17;;;;;;;28.51;29.16;94807.44;4983183;28;20041;-79
2021/08/21 13:28:52;;;;;;;3.55;3.25;;;;;;;28.31;29.87;94805.00;4964964;28;20566;-78
2021/08/21 13:31:18;;;;;;;3.20;2.90;;;;;;;28.46;30.06;94810.94;4966629;28;20480;-78
2021/08/21 13:33:44;;;;;;;3.03;2.83;;;;;;;28.45;29.96;94812.00;4982775;28;20050;-79
2021/08/21 13:36:10;;;;;;;3.67;3.10;;;;;;;28.33;30.19;94814.31;4984111;28;20030;-79
2021/08/21 13:38:35;;;;;;;2.80;2.60;;;;;;;28.28;30.23;94811.72;4948744;28;20041;-79
2021/08/21 13:41:01;;;;;;;6.10;5.70;;;;;;;28.23;30.56;94809.09;4983472;28;20393;-79
2021/08/21 13:43:26;;;;;;;6.28;3.30;;;;;;;28.19;31.23;94808.84;4980662;28;20436;-79
2021/08/21 13:45:52;;;;;;;3.95;3.00;;;;;;;28.21;30.50;94811.25;4966702;28;20431;-79
2021/08/21 13:48:17;;;;;;;4.97;3.15;;;;;;;28.23;31.75;94807.22;4966415;28;20034;-79
2021/08/21 13:50:43;;;;;;;4.93;3.38;;;;;;;28.12;30.43;94810.28;4950043;28;20018;-80
2021/08/21 13:53:08;;;;;;;3.95;3.05;;;;;;;28.19;31.82;94808.09;4984268;28;20030;-79
2021/08/21 13:55:35;;;;;;;4.38;2.92;;;;;;;28.20;29.91;94807.00;4965624;28;20047;-77
2021/08/21 13:58:00;;;;;;;5.85;3.00;;;;;;;28.35;30.67;94806.81;4966602;28;20029;-79
2021/08/21 14:00:26;;;;;;;5.57;2.90;;;;;;;28.35;29.93;94795.38;4964372;28;20030;-79
2021/08/21 14:02:51;;;;;;;3.28;3.00;;;;;;;28.45;31.02;94804.00;4947297;28;20047;-80
2021/08/21 14:05:17;;;;;;;4.07;2.78;;;;;;;28.47;31.47;94812.53;4964211;28;20059;-80
2021/08/21 14:07:42;;;;;;;4.25;3.85;;;;;;;28.41;30.18;94808.34;4962939;28;20490;-77
2021/08/21 14:10:12;;;;;;;3.65;3.15;;;;;;;28.51;30.34;94808.19;4945741;28;20023;-78
2021/08/21 14:12:37;;;;;;;4.10;3.80;;;;;;;28.67;31.13;94804.28;4960989;28;20041;-79
2021/08/21 14:15:04;;;;;;;3.83;3.30;;;;;;;28.73;30.53;94800.50;4963267;28;20501;-80
2021/08/21 14:17:29;;;;;;;4.28;3.88;;;;;;;28.80;30.61;94807.34;4962119;28;20529;-80
2021/08/21 14:19:55;;;;;;;4.50;4.05;;;;;;;28.85;30.04;94804.59;4962090;28;20078;-80
2021/08/21 14:22:20;;;;;;;4.68;4.22;;;;;;;28.71;31.04;94801.84;4962021;28;20042;-80
2021/08/21 14:24:46;;;;;;;5.30;4.90;;;;;;;28.87;31.59;94802.41;4946833;28;20034;-80
2021/08/21 14:27:11;;;;;;;4.35;3.47;;;;;;;28.74;31.34;94787.94;4944823;28;20062;-81
2021/08/21 14:29:37;;;;;;;4.55;3.78;;;;;;;28.49;31.68;94797.03;4943163;28;20106;-81
2021/08/21 14:32:04;;;;;;;3.63;3.42;;;;;;;28.80;31.56;94796.66;4961734;28;20113;-81
2021/08/21 14:34:31;;;;;;;3.13;2.90;;;;;;;28.76;30.61;94801.78;4958092;28;20030;-79
2021/08/21 14:36:56;;;;;;;3.38;3.08;;;;;;;28.76;31.44;94797.25;4963383;28;20108;-82
2021/08/21 14:39:22;;;;;;;3.38;3.03;;;;;;;28.69;30.39;94798.69;4961761;28;20555;-80
2021/08/21 14:41:48;;;;;;;4.15;3.35;;;;;;;28.52;31.12;94806.34;4949756;28;20039;-81
2021/08/21 14:44:13;;;;;;;3.75;3.45;;;;;;;28.42;31.18;94801.91;4962999;28;20034;-81
2021/08/21 14:46:39;;;;;;;4.25;3.78;;;;;;;28.32;31.46;94809.28;4963088;28;20081;-79
2021/08/21 14:49:05;;;;;;;3.70;3.40;;;;;;;28.10;31.69;94802.56;4965482;28;20039;-79
2021/08/21 14:51:31;;;;;;;4.22;3.92;;;;;;;28.05;31.70;94813.28;4947484;28;20512;-80
2021/08/21 14:53:56;;;;;;;5.68;3.88;;;;;;;28.01;32.16;94809.56;4950297;28;20030;-79
2021/08/21 14:56:22;;;;;;;4.57;3.83;;;;;;;27.96;32.62;94814.16;4949530;28;20018;-81
2021/08/21 14:58:48;;;;;;;4.47;4.07;;;;;;;27.81;32.80;94807.09;4966114;28;20030;-78
2021/08/21 15:01:13;;;;;;;5.00;4.15;;;;;;;27.82;33.07;94822.03;4962677;28;20062;-81
2021/08/21 15:03:39;;;;;;;5.82;3.83;;;;;;;27.71;33.43;94826.63;4965618;28;20042;-80
2021/08/21 15:06:05;;;;;;;4.40;4.10;;;;;;;27.60;33.11;94813.72;4942412;28;20551;-82
2021/08/21 15:08:33;;;;;;;4.53;4.22;;;;;;;27.63;32.75;94827.25;4964790;28;20385;-80
2021/08/21 15:10:58;;;;;;;5.13;4.63;;;;;;;27.58;32.89;94826.53;4934560;28;20484;-84
2021/08/21 15:13:24;;;;;;;6.65;6.15;;;;;;;27.56;33.78;94828.66;4931781;28;20034;-81
2021/08/21 15:15:49;;;;;;;7.32;5.85;;;;;;;27.60;33.30;94827.03;4964092;28;20484;-81
2021/08/21 15:18:15;;;;;;;8.00;7.40;;;;;;;27.62;33.53;94825.66;4963027;28;20077;-85
2021/08/21 15:20:40;;;;;;;8.43;7.72;;;;;;;27.63;33.57;94835.25;4965251;28;20381;-80
2021/08/21 15:23:06;;;;;;;7.15;6.53;;;;;;;27.49;34.17;94825.50;4964597;28;20042;-78
2021/08/21 15:25:31;;;;;;;4.07;3.78;;;;;;;27.39;34.51;94830.91;4963198;28;20030;-80
2021/08/21 15:27:57;;;;;;;3.97;3.70;;;;;;;27.46;34.03;94832.19;4963691;28;20038;-80
2021/08/21 15:30:22;;;;;;;6.70;6.10;;;;;;;27.53;34.42;94831.88;4965596;28;20456;-80
2021/08/21 15:32:49;;;;;;;9.73;8.80;;;;;;;27.51;34.42;94831.38;4966141;28;20093;-82
2021/08/21 15:35:15;;;;;;;11.95;10.80;;;;;;;27.54;34.66;94839.59;4930213;28;20082;-81
2021/08/21 15:37:43;;;;;;;12.07;10.80;;;;;;;27.43;34.23;94830.09;4966441;28;20456;-81
2021/08/21 15:40:10;;;;;;;16.27;14.82;;;;;;;27.42;34.12;94827.69;4964011;28;20033;-79
2021/08/21 15:42:39;;;;;;;7.93;7.13;;;;;;;27.47;34.33;94828.47;4949615;28;20047;-78
2021/08/21 15:45:06;;;;;;;6.93;6.47;;;;;;;27.42;34.43;94835.69;4949997;28;20507;-79
2021/08/21 15:47:31;;;;;;;6.20;5.18;;;;;;;27.57;34.47;94836.38;4948843;28;20039;-81
2021/08/21 15:49:56;;;;;;;7.57;6.90;;;;;;;27.58;34.91;94837.16;4949824;28;20031;-75
2021/08/21 15:52:24;;;;;;;5.65;5.10;;;;;;;27.41;35.45;94831.41;4964693;28;20030;-80
2021/08/21 15:54:50;;;;;;;8.43;4.90;;;;;;;27.42;35.24;94833.78;4965146;28;20109;-80
2021/08/21 15:57:16;;;;;;;8.23;5.28;;;;;;;27.54;35.46;94834.28;4956218;28;20038;-78
2021/08/21 15:59:42;;;;;;;4.95;4.55;;;;;;;27.43;35.74;94824.75;4966990;28;20027;-80
2021/08/21 16:02:08;;;;;;;5.72;5.32;;;;;;;27.46;35.59;94829.53;4948790;28;20609;-79
2021/08/21 16:04:34;;;;;;;7.43;5.13;;;;;;;27.45;35.05;94829.81;4930584;28;20027;-77
2021/08/21 16:06:59;;;;;;;6.43;5.93;;;;;;;27.35;35.31;94830.66;4966941;28;20038;-78
2021/08/21 16:09:25;;;;;;;6.60;4.35;;;;;;;27.16;35.34;94811.13;4947469;28;20251;-80
2021/08/21 16:11:50;;;;;;;4.55;4.15;;;;;;;27.19;35.81;94831.84;4947999;28;20042;-78
2021/08/21 16:14:15;;;;;;;4.15;3.85;;;;;;;27.09;35.21;94826.59;4947389;28;20538;-80
2021/08/21 16:16:41;;;;;;;4.93;4.07;;;;;;;27.01;35.91;94835.94;4948062;28;20476;-79
2021/08/21 16:19:06;;;;;;;3.70;3.40;;;;;;;26.95;35.81;94830.94;4946115;28;20023;-78
2021/08/21 16:21:32;;;;;;;4.38;3.97;;;;;;;26.89;35.88;94832.03;4948833;28;20055;-79
2021/08/21 16:23:57;;;;;;;8.07;4.80;;;;;;;26.83;36.00;94838.47;4947514;28;20473;-81
2021/08/21 16:26:23;;;;;;;4.78;4.15;;;;;;;26.81;36.02;94829.97;4948710;28;20056;-79
2021/08/21 16:28:49;;;;;;;4.10;3.22;;;;;;;26.77;36.58;94836.88;4966551;28;20547;-80
2021/08/21 16:31:15;;;;;;;6.15;5.38;;;;;;;26.66;36.59;94828.94;4965288;28;20108;-78
2021/08/21 16:33:41;;;;;;;5.10;4.47;;;;;;;26.64;36.85;94839.06;4947412;28;20592;-79
2021/08/21 16:36:06;;;;;;;7.30;6.60;;;;;;;26.47;36.90;94830.63;4962942;28;20018;-81
2021/08/21 16:38:32;;;;;;;7.75;5.10;;;;;;;26.44;37.17;94847.13;4948153;28;20444;-79